RÉSULTATS    Corrida de la Saint-Sylvestre - Édition du 31/12/2015


Vous pouvez changer la distance ici.

Vous pouvez changer la distance ici.

Classement PDF Général Classement PDF Alphabétique /results/<span class='glyphicon glyphicon-picture'></span> Classement Temps Réel - Temps Puce

103 participants - 90 Hommes - 13 Femmes
25 licenciés (24%) - 78 non-licenciés (76%)

Temps moyen : 00:37:49




Pos. Temps Nom - Prénom Club Dossard Catégorie km/h
51 00:36:31 GIRARD Benjamin 358 SEM (21 / 33) 13.1
52 00:36:39 MORTREUX Vincent THELEM ASSURANCES 360 SEM (22 / 33) 13.0
53 00:36:41 ARNOULT Cyril UC ORLEANS 342 V1M (13 / 21) 13.0
54 00:36:55 TANIOU Yann 348 V1M (14 / 21) 13.0
55 00:36:55 BRAZEY Pascal S/L CJF FLEURY LES AUBRAIS 355 V1M (15 / 21) 13.0
56 00:36:55 GUERIN Celine USM OLIVET 353 V1F (2 / 9) 12.9
57 00:37:00 DORLEANS Audrey 396 SEF (1 / 1) 12.9
58 00:37:21 VAMPOUCHE Loic S/L CJF FLEURY LES AUBRAIS 391 SEM (23 / 33) 12.8
59 00:37:32 GOUSSU Fred 397 V1M (16 / 21) 12.7
60 00:38:02 BUREAU Jordan 394 SEM (24 / 33) 12.6
61 00:38:05 BIDOCHA Johan 388 SEM (25 / 33) 12.6
62 00:38:26 CHAIGNON Christophe MAUVE ATTITUDE 378 V2M (14 / 28) 12.4
63 00:38:38 MOTAIS Alexandre LMA 45 361 SEM (26 / 33) 12.4
64 00:38:42 HARROT Olivier ASFAS 379 V2M (15 / 28) 12.4
65 00:38:58 GALARET Mehdi 381 V1M (17 / 21) 12.3
66 00:39:12 JOUANET Daniel JOGGING SEMOY 409 V2M (16 / 28) 12.2
67 00:39:16 VANDEWALLE Jean francois 386 V2M (17 / 28) 12.2
68 00:39:19 TERRIER Emmanuel 318 V1M (18 / 21) 12.2
69 00:39:31 PELE Pascal JOGGING SEMOY 389 V2M (18 / 28) 12.1
70 00:39:55 SEON Rene S/L CJF FLEURY LES AUBRAIS 339 V2M (19 / 28) 12.0
71 00:40:20 PORET Christian GIEN ATHLE MARATHON 312 V2M (20 / 28) 11.8
72 00:40:31 CARPENTIER Pier 373 JUM (1 / 1) 11.8
73 00:40:32 GROSJEAN Sebastien 305 SEM (27 / 33) 11.8
74 00:40:37 BAUCHER Michael JOGGING SEMOY 333 SEM (28 / 33) 11.8
75 00:40:49 BERTHOMIER Eric EFS REIMS A* 341 SEM (29 / 33) 11.7